EW9455 Weather Reports


Display with metric or nautical units.
time (UTC)temp
F
wind
direction
speed
MPH
gust
MPH
rain 1hr
in
rain 24hr
in
rain mn
in
humidity
%
barometer
mb
20190122121516 63 112 3.0 12.0 0.00 0.00 0.00 71 1027.3
20190122120516 63 112 4.0 15.0 0.00 0.00 0.00 72 1027.2
20190122115516 63 112 4.0 9.0 0.00 0.00 0.00 73 1027.2
20190122114516 63 112 4.0 13.0 0.00 0.00 0.00 74 1027.1
20190122113516 63 90 3.0 10.0 0.00 0.00 0.00 74 1027.0
20190122112516 62 112 2.0 6.0 0.00 0.00 0.00 76 1026.8
20190122111516 62 112 1.0 3.0 0.00 0.00 0.00 75 1026.9
20190122110516 62 112 1.0 4.0 0.00 0.00 0.00 76 1026.8
20190122105516 62 67 1.0 3.0 0.00 0.00 0.00 73 1026.8
20190122104516 62 0.0 0.0 0.00 0.00 0.00 71 1026.8
20190122103516 61 0.0 0.0 0.00 0.00 0.00 71 1026.7
20190122102516 62 0.0 0.0 0.00 0.00 0.00 71 1026.7
20190122101516 62 112 2.0 6.0 0.00 0.00 0.00 70 1026.5
20190122100516 62 112 1.0 7.0 0.00 0.00 0.00 69 1026.5
20190122095515 62 112 1.0 4.0 0.00 0.00 0.00 71 1026.5
20190122094516 62 112 1.0 6.0 0.00 0.00 0.00 70 1026.5
20190122093515 62 112 2.0 6.0 0.00 0.00 0.00 71 1026.4
20190122092515 62 112 4.0 10.0 0.00 0.00 0.00 71 1026.4
20190122091516 62 90 2.0 7.0 0.00 0.00 0.00 73 1026.3
20190122090516 62 112 2.0 6.0 0.00 0.00 0.00 73 1026.2
20190122085515 62 112 2.0 8.0 0.00 0.00 0.00 73 1026.3
20190122084516 62 0.0 7.0 0.00 0.00 0.00 74 1026.3
20190122083515 60 0.0 8.0 0.00 0.00 0.00 79 1026.2
20190122082516 51 0.0 0.0 0.00 0.00 0.00 84 1026.2
20190122081515 49 0.0 0.0 0.00 0.00 0.00 84 1026.2
20190122080515 49 0.0 0.0 0.00 0.00 0.00 84 1026.2
20190122075515 49 0.0 0.0 0.00 0.00 0.00 84 1026.2
20190122074515 48 0.0 0.0 0.00 0.00 0.00 84 1026.2
20190122073515 48 0.0 0.0 0.00 0.00 0.00 84 1026.3
20190122072515 48 0.0 0.0 0.00 0.00 0.00 85 1026.3
20190122071515 48 0.0 0.0 0.00 0.00 0.00 85 1026.4
20190122070515 47 0.0 0.0 0.00 0.00 0.00 85 1026.4
20190122065515 47 0.0 0.0 0.00 0.00 0.00 85 1026.4
20190122064515 47 0.0 0.0 0.00 0.00 0.00 85 1026.5
20190122063515 46 0.0 0.0 0.00 0.00 0.00 85 1026.6
20190122062515 46 0.0 0.0 0.00 0.00 0.00 85 1026.5
20190122061515 46 0.0 0.0 0.00 0.00 0.00 85 1026.7
20190122060515 45 0.0 0.0 0.00 0.00 0.00 85 1026.7
20190122055517 45 0.0 0.0 0.00 0.00 0.00 85 1026.8
20190122054516 45 0.0 0.0 0.00 0.00 0.00 85 1026.8
20190122053516 45 0.0 0.0 0.00 0.00 0.00 85 1026.9
20190122052517 46 0.0 0.0 0.00 0.00 0.00 85 1026.9
20190122051518 46 0.0 0.0 0.00 0.00 0.00 85 1027.0
20190122050517 46 0.0 0.0 0.00 0.00 0.00 84 1027.1
20190122045515 46 0.0 0.0 0.00 0.00 0.00 85 1027.2
20190122044515 46 0.0 0.0 0.00 0.00 0.00 85 1027.2
20190122043515 46 0.0 0.0 0.00 0.00 0.00 85 1027.2
20190122042515 46 0.0 0.0 0.00 0.00 0.00 85 1027.1
20190122041515 46 0.0 0.0 0.00 0.00 0.00 85 1027.1
20190122040515 46 0.0 0.0 0.00 0.00 0.00 84 1027.0
20190122035515 46 0.0 0.0 0.00 0.00 0.00 84 1027.0
20190122034515 46 0.0 0.0 0.00 0.00 0.00 84 1027.0
20190122033515 47 0.0 0.0 0.00 0.00 0.00 84 1027.1
20190122032515 47 0.0 0.0 0.00 0.00 0.00 84 1027.0
20190122031515 47 0.0 0.0 0.00 0.00 0.00 84 1027.0
20190122030515 47 0.0 0.0 0.00 0.00 0.00 84 1027.0
20190122025515 47 0.0 0.0 0.00 0.00 0.00 84 1026.9
20190122024515 48 0.0 0.0 0.00 0.00 0.00 84 1026.7
20190122023515 48 0.0 0.0 0.00 0.00 0.00 84 1026.8
20190122022517 48 0.0 0.0 0.00 0.00 0.00 84 1026.9
20190122021517 48 0.0 0.0 0.00 0.00 0.00 84 1026.7
20190122020517 49 0.0 0.0 0.00 0.00 0.00 83 1026.8
20190122015517 49 0.0 0.0 0.00 0.00 0.00 83 1026.8
20190122014517 51 0.0 0.0 0.00 0.00 0.00 82 1026.8
20190122013517 51 0.0 2.0 0.00 0.00 0.00 82 1026.8
20190122012517 52 0.0 2.0 0.00 0.00 0.00 82 1026.8
20190122011517 52 0.0 3.0 0.00 0.00 0.00 81 1026.8
20190122010517 52 0.0 3.0 0.00 0.00 0.00 81 1026.8
20190122005517 52 0.0 3.0 0.00 0.00 0.00 81 1026.6
20190122004516 52 0 1.0 5.0 0.00 0.00 0.00 81 1026.5
20190122003516 52 22 1.0 4.0 0.00 0.00 0.00 81 1026.4
20190122002516 52 0 2.0 5.0 0.00 0.00 0.00 80 1026.2
20190122001516 53 0 2.0 8.0 0.00 0.00 0.00 80 1026.2
20190122000516 53 0.0 5.0 0.00 0.00 0.00 79 1026.2
20190121235516 53 0 3.0 9.0 0.00 0.00 0.00 79 1026.0
20190121234516 53 22 4.0 9.0 0.00 0.00 0.00 79 1026.0
20190121233516 53 22 4.0 10.0 0.00 0.00 0.00 79 1026.0
20190121232516 54 22 5.0 11.0 0.00 0.00 0.00 78 1026.0
20190121231516 54 22 5.0 11.0 0.00 0.00 0.00 77 1026.0
20190121230516 54 22 4.0 10.0 0.00 0.00 0.00 77 1025.9
20190121225516 54 22 3.0 13.0 0.00 0.00 0.00 77 1025.8
20190121224516 55 22 5.0 12.0 0.00 0.00 0.00 76 1025.7
20190121223516 55 22 8.0 16.0 0.00 0.00 0.00 75 1025.6
20190121222516 55 22 9.0 16.0 0.00 0.00 0.00 74 1025.5
20190121221516 56 22 8.0 15.0 0.00 0.00 0.00 74 1025.4
20190121220516 56 22 11.0 20.0 0.00 0.00 0.00 73 1025.4
20190121215516 56 45 11.0 21.0 0.00 0.00 0.00 72 1025.3
20190121214516 56 22 11.0 19.0 0.00 0.00 0.00 71 1025.2
20190121213517 57 22 8.0 20.0 0.00 0.00 0.00 70 1025.3
20190121212516 57 45 12.0 22.0 0.00 0.00 0.00 70 1025.1
20190121211516 57 45 9.0 17.0 0.00 0.00 0.00 70 1025.1
20190121210516 57 45 9.0 18.0 0.00 0.00 0.00 70 1025.0
20190121205516 57 22 11.0 20.0 0.00 0.00 0.00 69 1025.0
20190121204516 57 45 10.0 18.0 0.00 0.00 0.00 70 1024.8
20190121203515 58 45 11.0 19.0 0.00 0.00 0.00 68 1024.8
20190121202515 58 45 11.0 21.0 0.00 0.00 0.00 69 1024.7
20190121201516 58 45 8.0 18.0 0.00 0.00 0.00 70 1024.7
20190121200516 58 45 10.0 19.0 0.00 0.00 0.00 68 1024.6
20190121195515 58 22 7.0 18.0 0.00 0.00 0.00 67 1024.5
20190121194515 59 45 7.0 17.0 0.00 0.00 0.00 68 1024.5
20190121193515 58 45 9.0 18.0 0.00 0.00 0.00 67 1024.6
20190121192515 58 45 7.0 18.0 0.00 0.00 0.00 67 1024.4
20190121191515 59 45 8.0 14.0 0.00 0.00 0.00 66 1024.3
20190121190515 59 45 8.0 16.0 0.00 0.00 0.00 65 1024.5
20190121185515 59 22 7.0 14.0 0.00 0.00 0.00 65 1024.4
20190121184515 58 45 7.0 14.0 0.00 0.00 0.00 67 1024.5
20190121183515 59 22 6.0 15.0 0.00 0.00 0.00 66 1024.5
20190121182515 58 22 8.0 16.0 0.00 0.00 0.00 66 1024.6
20190121181515 58 45 7.0 17.0 0.00 0.00 0.00 67 1024.8
20190121180515 58 45 6.0 13.0 0.00 0.00 0.00 69 1024.8
20190121175515 58 22 6.0 13.0 0.00 0.00 0.00 68 1025.0
20190121174515 58 22 5.0 12.0 0.00 0.00 0.00 68 1025.1
20190121173515 57 22 8.0 15.0 0.00 0.00 0.00 69 1025.2
20190121172515 56 22 8.0 16.0 0.00 0.00 0.00 69 1025.3
20190121171515 55 0 6.0 12.0 0.00 0.00 0.00 70 1025.3
20190121170515 54 315 5.0 12.0 0.00 0.00 0.00 70 1025.3
20190121165517 54 22 4.0 11.0 0.00 0.00 0.00 70 1025.3
20190121164517 54 0 4.0 9.0 0.00 0.00 0.00 70 1025.3
20190121163517 53 22 6.0 13.0 0.00 0.00 0.00 71 1025.3
20190121162517 53 22 4.0 11.0 0.00 0.00 0.00 72 1025.2
20190121161517 53 22 6.0 12.0 0.00 0.00 0.00 72 1025.1
20190121160515 52 0 5.0 11.0 0.00 0.00 0.00 74 1025.2
20190121155516 51 0 6.0 12.0 0.00 0.00 0.00 73 1025.2
20190121154516 51 0 6.0 11.0 0.00 0.00 0.00 73 1025.1
20190121153516 51 22 7.0 12.0 0.00 0.00 0.00 73 1025.1
20190121152516 50 0 4.0 9.0 0.00 0.00 0.00 74 1025.0
20190121151517 48 337 4.0 9.0 0.00 0.00 0.00 75 1024.8
20190121150517 47 22 3.0 9.0 0.00 0.00 0.00 75 1024.8
20190121145516 47 0 3.0 8.0 0.00 0.00 0.00 76 1024.6
20190121144516 46 22 2.0 9.0 0.00 0.00 0.00 77 1024.5
20190121143516 44 337 3.0 8.0 0.00 0.00 0.00 78 1024.5
20190121142516 44 337 4.0 9.0 0.00 0.00 0.00 78 1024.6
20190121141517 43 315 2.0 10.0 0.00 0.00 0.00 78 1024.5
20190121140516 43 315 2.0 8.0 0.00 0.00 0.00 78 1024.2
20190121135517 42 315 3.0 9.0 0.00 0.00 0.00 78 1024.1
20190121134516 41 315 3.0 11.0 0.00 0.00 0.00 78 1024.1
20190121133516 41 337 4.0 11.0 0.00 0.00 0.00 79 1024.1
20190121132516 40 337 6.0 11.0 0.00 0.00 0.00 79 1024.1
20190121131516 40 337 6.0 12.0 0.00 0.00 0.00 80 1024.0
20190121130516 39 315 6.0 11.0 0.00 0.00 0.00 81 1024.0
20190121125516 39 337 3.0 15.0 0.00 0.00 0.00 82 1023.9
20190121124516 39 0.0 0.0 0.00 0.00 0.00 83 1023.8
20190121123516 38 315 1.0 11.0 0.00 0.00 0.00 84 1023.7
20190121122516 38 0.0 0.0 0.00 0.00 0.00 84 1023.4